sensor_id;sensor_type;location;lat;lon;timestamp;P1;durP1;ratioP1;P2;durP2;ratioP2
59486;SDS011;45298;54.918;73.504;2023-03-11T00:01:09;21.40;;;7.38;;
59486;SDS011;45298;54.918;73.504;2023-03-11T00:03:38;17.50;;;7.28;;
59486;SDS011;45298;54.918;73.504;2023-03-11T00:06:07;13.65;;;5.50;;
59486;SDS011;45298;54.918;73.504;2023-03-11T00:08:36;16.10;;;6.07;;
59486;SDS011;45298;54.918;73.504;2023-03-11T00:11:05;21.13;;;8.38;;
59486;SDS011;45298;54.918;73.504;2023-03-11T00:13:37;14.70;;;5.57;;
59486;SDS011;45298;54.918;73.504;2023-03-11T00:16:08;26.20;;;9.45;;
59486;SDS011;45298;54.918;73.504;2023-03-11T00:18:37;11.65;;;5.13;;
59486;SDS011;45298;54.918;73.504;2023-03-11T00:21:06;15.40;;;6.38;;
59486;SDS011;45298;54.918;73.504;2023-03-11T00:23:43;15.10;;;5.68;;
59486;SDS011;45298;54.918;73.504;2023-03-11T00:26:12;17.73;;;6.85;;
59486;SDS011;45298;54.918;73.504;2023-03-11T00:28:41;16.05;;;5.72;;
59486;SDS011;45298;54.918;73.504;2023-03-11T00:31:11;23.30;;;8.23;;
59486;SDS011;45298;54.918;73.504;2023-03-11T00:33:40;17.83;;;6.57;;
59486;SDS011;45298;54.918;73.504;2023-03-11T00:36:22;19.65;;;6.35;;
59486;SDS011;45298;54.918;73.504;2023-03-11T00:38:56;13.52;;;5.68;;
59486;SDS011;45298;54.918;73.504;2023-03-11T00:41:25;13.05;;;5.60;;
59486;SDS011;45298;54.918;73.504;2023-03-11T00:43:54;16.75;;;6.03;;
59486;SDS011;45298;54.918;73.504;2023-03-11T00:46:23;37.22;;;12.75;;
59486;SDS011;45298;54.918;73.504;2023-03-11T00:48:51;20.10;;;6.22;;
59486;SDS011;45298;54.918;73.504;2023-03-11T00:51:20;12.10;;;5.05;;
59486;SDS011;45298;54.918;73.504;2023-03-11T00:53:49;12.02;;;5.15;;
59486;SDS011;45298;54.918;73.504;2023-03-11T00:56:18;15.20;;;5.20;;
59486;SDS011;45298;54.918;73.504;2023-03-11T00:58:47;13.02;;;5.32;;
59486;SDS011;45298;54.918;73.504;2023-03-11T01:01:16;13.60;;;4.93;;
59486;SDS011;45298;54.918;73.504;2023-03-11T01:03:47;16.80;;;4.85;;
59486;SDS011;45298;54.918;73.504;2023-03-11T01:06:16;14.85;;;5.53;;
59486;SDS011;45298;54.918;73.504;2023-03-11T01:08:45;15.60;;;5.68;;
59486;SDS011;45298;54.918;73.504;2023-03-11T01:11:15;11.13;;;4.25;;
59486;SDS011;45298;54.918;73.504;2023-03-11T01:13:44;12.48;;;5.10;;
59486;SDS011;45298;54.918;73.504;2023-03-11T01:16:13;16.95;;;6.72;;
59486;SDS011;45298;54.918;73.504;2023-03-11T01:18:42;14.63;;;5.10;;
59486;SDS011;45298;54.918;73.504;2023-03-11T01:21:11;10.75;;;4.20;;
59486;SDS011;45298;54.918;73.504;2023-03-11T01:23:40;19.60;;;7.28;;
59486;SDS011;45298;54.918;73.504;2023-03-11T01:26:10;12.65;;;5.07;;
59486;SDS011;45298;54.918;73.504;2023-03-11T01:28:39;10.40;;;4.25;;
59486;SDS011;45298;54.918;73.504;2023-03-11T01:31:08;9.40;;;4.10;;
59486;SDS011;45298;54.918;73.504;2023-03-11T01:33:38;27.17;;;10.23;;
59486;SDS011;45298;54.918;73.504;2023-03-11T01:36:07;13.48;;;6.22;;
59486;SDS011;45298;54.918;73.504;2023-03-11T01:38:36;7.95;;;3.80;;
59486;SDS011;45298;54.918;73.504;2023-03-11T01:41:05;10.20;;;3.97;;
59486;SDS011;45298;54.918;73.504;2023-03-11T01:46:18;9.10;;;3.80;;
59486;SDS011;45298;54.918;73.504;2023-03-11T01:48:51;10.27;;;4.30;;
59486;SDS011;45298;54.918;73.504;2023-03-11T01:51:26;12.63;;;5.35;;
59486;SDS011;45298;54.918;73.504;2023-03-11T01:53:58;11.55;;;4.55;;
59486;SDS011;45298;54.918;73.504;2023-03-11T01:56:31;13.88;;;5.28;;
59486;SDS011;45298;54.918;73.504;2023-03-11T01:59:03;9.88;;;3.60;;
59486;SDS011;45298;54.918;73.504;2023-03-11T02:01:36;6.78;;;3.30;;
59486;SDS011;45298;54.918;73.504;2023-03-11T02:04:16;9.35;;;3.90;;
59486;SDS011;45298;54.918;73.504;2023-03-11T02:06:46;8.43;;;3.15;;
59486;SDS011;45298;54.918;73.504;2023-03-11T02:09:16;6.75;;;2.80;;
59486;SDS011;45298;54.918;73.504;2023-03-11T02:11:44;8.30;;;3.22;;
59486;SDS011;45298;54.918;73.504;2023-03-11T02:14:13;6.68;;;2.78;;
59486;SDS011;45298;54.918;73.504;2023-03-11T02:16:42;8.13;;;3.00;;
59486;SDS011;45298;54.918;73.504;2023-03-11T02:19:55;5.78;;;2.60;;
59486;SDS011;45298;54.918;73.504;2023-03-11T02:22:08;8.32;;;3.30;;
59486;SDS011;45298;54.918;73.504;2023-03-11T02:24:43;8.07;;;3.40;;
59486;SDS011;45298;54.918;73.504;2023-03-11T02:27:13;6.57;;;2.70;;
59486;SDS011;45298;54.918;73.504;2023-03-11T02:29:45;6.55;;;3.17;;
59486;SDS011;45298;54.918;73.504;2023-03-11T02:32:18;6.75;;;3.03;;
59486;SDS011;45298;54.918;73.504;2023-03-11T02:34:48;6.72;;;2.72;;
59486;SDS011;45298;54.918;73.504;2023-03-11T02:37:17;7.57;;;2.83;;
59486;SDS011;45298;54.918;73.504;2023-03-11T02:39:53;5.82;;;2.65;;
59486;SDS011;45298;54.918;73.504;2023-03-11T02:42:24;6.47;;;2.67;;
59486;SDS011;45298;54.918;73.504;2023-03-11T02:45:00;7.95;;;2.55;;
59486;SDS011;45298;54.918;73.504;2023-03-11T02:47:35;5.63;;;2.53;;
59486;SDS011;45298;54.918;73.504;2023-03-11T02:50:09;7.68;;;2.88;;
59486;SDS011;45298;54.918;73.504;2023-03-11T02:52:41;5.85;;;2.72;;
59486;SDS011;45298;54.918;73.504;2023-03-11T02:55:10;6.78;;;2.60;;
59486;SDS011;45298;54.918;73.504;2023-03-11T02:57:40;5.72;;;2.80;;
59486;SDS011;45298;54.918;73.504;2023-03-11T03:00:10;7.53;;;2.90;;
59486;SDS011;45298;54.918;73.504;2023-03-11T03:02:53;6.97;;;3.00;;
59486;SDS011;45298;54.918;73.504;2023-03-11T03:05:23;7.57;;;3.65;;
59486;SDS011;45298;54.918;73.504;2023-03-11T03:07:52;6.28;;;2.85;;
59486;SDS011;45298;54.918;73.504;2023-03-11T03:10:23;8.00;;;3.63;;
59486;SDS011;45298;54.918;73.504;2023-03-11T03:12:52;7.90;;;3.50;;
59486;SDS011;45298;54.918;73.504;2023-03-11T03:15:21;9.10;;;4.03;;
59486;SDS011;45298;54.918;73.504;2023-03-11T03:17:50;6.28;;;3.25;;
59486;SDS011;45298;54.918;73.504;2023-03-11T03:20:20;7.80;;;3.35;;
59486;SDS011;45298;54.918;73.504;2023-03-11T03:22:53;6.28;;;3.00;;
59486;SDS011;45298;54.918;73.504;2023-03-11T03:25:26;5.57;;;2.83;;
59486;SDS011;45298;54.918;73.504;2023-03-11T03:27:58;5.97;;;2.67;;
59486;SDS011;45298;54.918;73.504;2023-03-11T03:30:28;7.85;;;3.20;;
59486;SDS011;45298;54.918;73.504;2023-03-11T03:32:58;5.68;;;3.00;;
59486;SDS011;45298;54.918;73.504;2023-03-11T03:35:29;8.25;;;3.20;;
59486;SDS011;45298;54.918;73.504;2023-03-11T03:38:08;6.68;;;3.10;;
59486;SDS011;45298;54.918;73.504;2023-03-11T03:40:38;7.40;;;3.28;;
59486;SDS011;45298;54.918;73.504;2023-03-11T03:43:07;9.45;;;3.42;;
59486;SDS011;45298;54.918;73.504;2023-03-11T03:45:37;8.82;;;3.00;;
59486;SDS011;45298;54.918;73.504;2023-03-11T03:48:07;7.25;;;3.17;;
59486;SDS011;45298;54.918;73.504;2023-03-11T03:50:40;9.00;;;3.22;;
59486;SDS011;45298;54.918;73.504;2023-03-11T03:53:12;5.88;;;2.95;;
59486;SDS011;45298;54.918;73.504;2023-03-11T03:55:42;7.03;;;3.05;;
59486;SDS011;45298;54.918;73.504;2023-03-11T03:58:11;6.20;;;3.10;;
59486;SDS011;45298;54.918;73.504;2023-03-11T04:00:41;6.85;;;3.10;;
59486;SDS011;45298;54.918;73.504;2023-03-11T04:03:11;4.93;;;2.67;;
59486;SDS011;45298;54.918;73.504;2023-03-11T04:05:46;4.80;;;2.55;;
59486;SDS011;45298;54.918;73.504;2023-03-11T04:08:16;7.13;;;2.85;;
59486;SDS011;45298;54.918;73.504;2023-03-11T04:10:54;4.97;;;2.95;;
59486;SDS011;45298;54.918;73.504;2023-03-11T04:13:26;5.25;;;2.55;;
59486;SDS011;45298;54.918;73.504;2023-03-11T04:15:55;5.00;;;2.38;;
59486;SDS011;45298;54.918;73.504;2023-03-11T04:18:27;5.35;;;2.42;;
59486;SDS011;45298;54.918;73.504;2023-03-11T04:20:55;10.07;;;3.13;;
59486;SDS011;45298;54.918;73.504;2023-03-11T04:23:24;6.35;;;3.20;;
59486;SDS011;45298;54.918;73.504;2023-03-11T04:25:54;8.23;;;3.35;;
59486;SDS011;45298;54.918;73.504;2023-03-11T04:28:23;6.75;;;3.42;;
59486;SDS011;45298;54.918;73.504;2023-03-11T04:30:52;8.27;;;3.67;;
59486;SDS011;45298;54.918;73.504;2023-03-11T04:33:22;6.95;;;3.47;;
59486;SDS011;45298;54.918;73.504;2023-03-11T04:35:51;7.65;;;3.30;;
59486;SDS011;45298;54.918;73.504;2023-03-11T04:38:20;6.85;;;3.20;;
59486;SDS011;45298;54.918;73.504;2023-03-11T04:40:49;6.05;;;3.10;;
59486;SDS011;45298;54.918;73.504;2023-03-11T04:43:19;6.85;;;3.38;;
59486;SDS011;45298;54.918;73.504;2023-03-11T04:45:48;7.13;;;3.50;;
59486;SDS011;45298;54.918;73.504;2023-03-11T04:48:18;7.18;;;3.40;;
59486;SDS011;45298;54.918;73.504;2023-03-11T04:50:48;6.90;;;3.50;;
59486;SDS011;45298;54.918;73.504;2023-03-11T04:53:19;10.48;;;3.72;;
59486;SDS011;45298;54.918;73.504;2023-03-11T04:55:49;7.93;;;3.58;;
59486;SDS011;45298;54.918;73.504;2023-03-11T04:58:19;9.05;;;3.60;;
59486;SDS011;45298;54.918;73.504;2023-03-11T05:00:48;8.38;;;3.97;;
59486;SDS011;45298;54.918;73.504;2023-03-11T05:03:17;7.00;;;3.28;;
59486;SDS011;45298;54.918;73.504;2023-03-11T05:05:47;12.20;;;3.63;;
59486;SDS011;45298;54.918;73.504;2023-03-11T05:08:18;8.18;;;3.75;;
59486;SDS011;45298;54.918;73.504;2023-03-11T05:10:47;7.57;;;3.63;;
59486;SDS011;45298;54.918;73.504;2023-03-11T05:13:19;6.43;;;3.20;;
59486;SDS011;45298;54.918;73.504;2023-03-11T05:15:50;6.78;;;3.47;;
59486;SDS011;45298;54.918;73.504;2023-03-11T05:18:20;7.90;;;3.40;;
59486;SDS011;45298;54.918;73.504;2023-03-11T05:20:50;7.68;;;3.78;;
59486;SDS011;45298;54.918;73.504;2023-03-11T05:23:24;7.75;;;4.03;;
59486;SDS011;45298;54.918;73.504;2023-03-11T05:25:53;7.10;;;3.85;;
59486;SDS011;45298;54.918;73.504;2023-03-11T05:28:25;7.20;;;3.70;;
59486;SDS011;45298;54.918;73.504;2023-03-11T05:30:57;7.82;;;3.88;;
59486;SDS011;45298;54.918;73.504;2023-03-11T05:33:29;7.80;;;3.42;;
59486;SDS011;45298;54.918;73.504;2023-03-11T05:36:05;9.30;;;3.30;;
59486;SDS011;45298;54.918;73.504;2023-03-11T05:41:08;9.70;;;3.80;;
59486;SDS011;45298;54.918;73.504;2023-03-11T05:43:40;12.30;;;3.47;;
59486;SDS011;45298;54.918;73.504;2023-03-11T05:46:09;7.72;;;3.55;;
59486;SDS011;45298;54.918;73.504;2023-03-11T05:48:39;8.70;;;3.55;;
59486;SDS011;45298;54.918;73.504;2023-03-11T05:51:09;7.85;;;3.78;;
59486;SDS011;45298;54.918;73.504;2023-03-11T05:53:44;8.18;;;3.67;;
59486;SDS011;45298;54.918;73.504;2023-03-11T05:56:22;13.50;;;3.85;;
59486;SDS011;45298;54.918;73.504;2023-03-11T05:58:55;16.02;;;7.20;;
59486;SDS011;45298;54.918;73.504;2023-03-11T06:01:28;7.20;;;4.25;;
59486;SDS011;45298;54.918;73.504;2023-03-11T06:03:57;12.23;;;5.20;;
59486;SDS011;45298;54.918;73.504;2023-03-11T06:06:28;10.40;;;4.15;;
59486;SDS011;45298;54.918;73.504;2023-03-11T06:08:58;9.85;;;4.60;;
59486;SDS011;45298;54.918;73.504;2023-03-11T06:11:28;12.45;;;5.00;;
59486;SDS011;45298;54.918;73.504;2023-03-11T06:13:57;11.80;;;3.90;;
59486;SDS011;45298;54.918;73.504;2023-03-11T06:16:27;10.32;;;4.15;;
59486;SDS011;45298;54.918;73.504;2023-03-11T06:19:02;6.85;;;3.22;;
59486;SDS011;45298;54.918;73.504;2023-03-11T06:21:36;11.73;;;5.15;;
59486;SDS011;45298;54.918;73.504;2023-03-11T06:24:05;10.20;;;3.90;;
59486;SDS011;45298;54.918;73.504;2023-03-11T06:26:35;10.77;;;4.07;;
59486;SDS011;45298;54.918;73.504;2023-03-11T06:29:06;10.02;;;3.55;;
59486;SDS011;45298;54.918;73.504;2023-03-11T06:31:40;8.77;;;3.88;;
59486;SDS011;45298;54.918;73.504;2023-03-11T06:34:11;9.77;;;3.95;;
59486;SDS011;45298;54.918;73.504;2023-03-11T06:36:40;9.02;;;4.10;;
59486;SDS011;45298;54.918;73.504;2023-03-11T06:39:12;10.65;;;4.40;;
59486;SDS011;45298;54.918;73.504;2023-03-11T06:41:45;8.15;;;3.70;;
59486;SDS011;45298;54.918;73.504;2023-03-11T06:44:15;9.73;;;3.92;;
59486;SDS011;45298;54.918;73.504;2023-03-11T06:46:44;8.65;;;3.80;;
59486;SDS011;45298;54.918;73.504;2023-03-11T06:49:14;16.42;;;5.75;;
59486;SDS011;45298;54.918;73.504;2023-03-11T06:51:43;9.23;;;3.70;;
59486;SDS011;45298;54.918;73.504;2023-03-11T06:54:14;12.55;;;3.33;;
59486;SDS011;45298;54.918;73.504;2023-03-11T06:56:43;6.90;;;3.17;;
59486;SDS011;45298;54.918;73.504;2023-03-11T06:59:13;9.18;;;3.47;;
59486;SDS011;45298;54.918;73.504;2023-03-11T07:01:44;10.45;;;4.32;;
59486;SDS011;45298;54.918;73.504;2023-03-11T07:04:13;7.18;;;3.40;;
59486;SDS011;45298;54.918;73.504;2023-03-11T07:06:42;7.68;;;3.70;;
59486;SDS011;45298;54.918;73.504;2023-03-11T07:09:16;7.85;;;3.28;;
59486;SDS011;45298;54.918;73.504;2023-03-11T07:11:45;8.27;;;3.13;;
59486;SDS011;45298;54.918;73.504;2023-03-11T07:14:21;8.60;;;2.88;;
59486;SDS011;45298;54.918;73.504;2023-03-11T07:16:54;8.95;;;3.28;;
59486;SDS011;45298;54.918;73.504;2023-03-11T07:19:31;5.78;;;2.92;;
59486;SDS011;45298;54.918;73.504;2023-03-11T07:22:00;6.50;;;3.30;;
59486;SDS011;45298;54.918;73.504;2023-03-11T07:24:29;6.90;;;3.30;;
59486;SDS011;45298;54.918;73.504;2023-03-11T07:26:58;7.10;;;3.65;;
59486;SDS011;45298;54.918;73.504;2023-03-11T07:29:26;8.55;;;3.47;;
59486;SDS011;45298;54.918;73.504;2023-03-11T07:31:55;7.43;;;3.35;;
59486;SDS011;45298;54.918;73.504;2023-03-11T07:34:24;8.25;;;3.50;;
59486;SDS011;45298;54.918;73.504;2023-03-11T07:36:53;7.85;;;3.70;;
59486;SDS011;45298;54.918;73.504;2023-03-11T07:39:22;9.68;;;3.75;;
59486;SDS011;45298;54.918;73.504;2023-03-11T07:41:51;7.50;;;3.80;;
59486;SDS011;45298;54.918;73.504;2023-03-11T07:44:19;7.57;;;3.58;;
59486;SDS011;45298;54.918;73.504;2023-03-11T07:46:48;7.93;;;3.38;;
59486;SDS011;45298;54.918;73.504;2023-03-11T07:49:17;7.38;;;3.47;;
59486;SDS011;45298;54.918;73.504;2023-03-11T07:51:46;9.70;;;3.95;;
59486;SDS011;45298;54.918;73.504;2023-03-11T07:54:15;8.10;;;3.13;;
59486;SDS011;45298;54.918;73.504;2023-03-11T07:56:43;7.95;;;3.83;;
59486;SDS011;45298;54.918;73.504;2023-03-11T07:59:12;6.97;;;3.40;;
59486;SDS011;45298;54.918;73.504;2023-03-11T08:01:41;8.73;;;3.75;;
59486;SDS011;45298;54.918;73.504;2023-03-11T08:04:14;9.30;;;3.90;;
59486;SDS011;45298;54.918;73.504;2023-03-11T08:06:44;10.95;;;4.38;;
59486;SDS011;45298;54.918;73.504;2023-03-11T08:09:14;7.63;;;3.72;;
59486;SDS011;45298;54.918;73.504;2023-03-11T08:11:43;9.77;;;3.70;;
59486;SDS011;45298;54.918;73.504;2023-03-11T08:14:14;9.55;;;3.40;;
59486;SDS011;45298;54.918;73.504;2023-03-11T08:16:43;9.30;;;3.53;;
59486;SDS011;45298;54.918;73.504;2023-03-11T08:19:12;8.98;;;3.45;;
59486;SDS011;45298;54.918;73.504;2023-03-11T08:21:41;9.57;;;3.33;;
59486;SDS011;45298;54.918;73.504;2023-03-11T08:24:13;7.57;;;3.42;;
59486;SDS011;45298;54.918;73.504;2023-03-11T08:26:42;10.32;;;3.80;;
59486;SDS011;45298;54.918;73.504;2023-03-11T08:29:11;6.85;;;3.60;;
59486;SDS011;45298;54.918;73.504;2023-03-11T08:31:40;8.27;;;3.60;;
59486;SDS011;45298;54.918;73.504;2023-03-11T08:34:09;8.43;;;3.60;;
59486;SDS011;45298;54.918;73.504;2023-03-11T08:36:39;7.32;;;3.20;;
59486;SDS011;45298;54.918;73.504;2023-03-11T08:39:07;7.00;;;3.17;;
59486;SDS011;45298;54.918;73.504;2023-03-11T08:41:37;9.15;;;3.30;;
59486;SDS011;45298;54.918;73.504;2023-03-11T08:44:05;8.80;;;3.58;;
59486;SDS011;45298;54.918;73.504;2023-03-11T08:46:35;8.05;;;3.40;;
59486;SDS011;45298;54.918;73.504;2023-03-11T08:49:05;10.52;;;4.53;;
59486;SDS011;45298;54.918;73.504;2023-03-11T08:51:35;10.93;;;3.60;;
59486;SDS011;45298;54.918;73.504;2023-03-11T08:54:04;9.63;;;4.28;;
59486;SDS011;45298;54.918;73.504;2023-03-11T08:56:33;11.77;;;3.83;;
59486;SDS011;45298;54.918;73.504;2023-03-11T08:59:04;10.10;;;3.90;;
59486;SDS011;45298;54.918;73.504;2023-03-11T09:01:35;7.80;;;3.50;;
59486;SDS011;45298;54.918;73.504;2023-03-11T09:04:05;7.20;;;3.78;;
59486;SDS011;45298;54.918;73.504;2023-03-11T09:06:34;11.02;;;4.32;;
59486;SDS011;45298;54.918;73.504;2023-03-11T09:09:05;8.77;;;3.97;;
59486;SDS011;45298;54.918;73.504;2023-03-11T09:11:34;7.97;;;3.38;;
59486;SDS011;45298;54.918;73.504;2023-03-11T09:14:04;8.70;;;3.50;;
59486;SDS011;45298;54.918;73.504;2023-03-11T09:16:35;8.00;;;3.72;;
59486;SDS011;45298;54.918;73.504;2023-03-11T09:19:04;8.98;;;3.42;;
59486;SDS011;45298;54.918;73.504;2023-03-11T09:21:35;9.07;;;4.10;;
59486;SDS011;45298;54.918;73.504;2023-03-11T09:24:05;10.30;;;4.22;;
59486;SDS011;45298;54.918;73.504;2023-03-11T09:26:35;10.68;;;3.75;;
59486;SDS011;45298;54.918;73.504;2023-03-11T09:29:05;11.40;;;4.55;;
59486;SDS011;45298;54.918;73.504;2023-03-11T09:31:34;12.05;;;4.90;;
59486;SDS011;45298;54.918;73.504;2023-03-11T09:34:03;10.18;;;4.40;;
59486;SDS011;45298;54.918;73.504;2023-03-11T09:36:34;14.73;;;4.70;;
59486;SDS011;45298;54.918;73.504;2023-03-11T09:39:04;21.63;;;5.25;;
59486;SDS011;45298;54.918;73.504;2023-03-11T09:49:54;10.60;;;4.30;;
59486;SDS011;45298;54.918;73.504;2023-03-11T09:55:42;15.07;;;5.13;;
59486;SDS011;45298;54.918;73.504;2023-03-11T09:58:21;9.98;;;4.60;;
59486;SDS011;45298;54.918;73.504;2023-03-11T10:04:03;11.85;;;4.80;;
59486;SDS011;45298;54.918;73.504;2023-03-11T10:06:39;14.40;;;5.20;;
59486;SDS011;45298;54.918;73.504;2023-03-11T10:26:57;12.55;;;5.60;;
59486;SDS011;45298;54.918;73.504;2023-03-11T10:29:45;14.02;;;5.18;;
59486;SDS011;45298;54.918;73.504;2023-03-11T10:32:24;17.50;;;5.38;;
59486;SDS011;45298;54.918;73.504;2023-03-11T10:35:16;15.35;;;6.13;;
59486;SDS011;45298;54.918;73.504;2023-03-11T10:37:53;15.05;;;6.47;;
59486;SDS011;45298;54.918;73.504;2023-03-11T10:40:28;15.70;;;5.97;;
59486;SDS011;45298;54.918;73.504;2023-03-11T10:43:04;13.90;;;5.72;;
59486;SDS011;45298;54.918;73.504;2023-03-11T10:45:41;15.80;;;6.20;;
59486;SDS011;45298;54.918;73.504;2023-03-11T10:48:16;12.85;;;6.32;;
59486;SDS011;45298;54.918;73.504;2023-03-11T10:53:51;15.00;;;6.40;;
59486;SDS011;45298;54.918;73.504;2023-03-11T11:01:26;14.80;;;6.07;;
59486;SDS011;45298;54.918;73.504;2023-03-11T11:03:58;15.02;;;6.60;;
59486;SDS011;45298;54.918;73.504;2023-03-11T11:06:34;15.23;;;6.85;;
59486;SDS011;45298;54.918;73.504;2023-03-11T11:09:14;14.25;;;6.40;;
59486;SDS011;45298;54.918;73.504;2023-03-11T11:14:48;13.82;;;5.40;;
59486;SDS011;45298;54.918;73.504;2023-03-11T11:17:28;15.35;;;5.53;;
59486;SDS011;45298;54.918;73.504;2023-03-11T11:20:00;11.13;;;5.13;;
59486;SDS011;45298;54.918;73.504;2023-03-11T11:22:40;13.57;;;5.40;;
59486;SDS011;45298;54.918;73.504;2023-03-11T11:25:23;12.80;;;5.50;;
59486;SDS011;45298;54.918;73.504;2023-03-11T11:27:57;16.40;;;5.82;;
59486;SDS011;45298;54.918;73.504;2023-03-11T11:33:00;15.63;;;6.15;;
59486;SDS011;45298;54.918;73.504;2023-03-11T11:35:51;12.30;;;5.72;;
59486;SDS011;45298;54.918;73.504;2023-03-11T11:38:24;14.18;;;6.03;;
59486;SDS011;45298;54.918;73.504;2023-03-11T11:40:56;13.68;;;5.53;;
59486;SDS011;45298;54.918;73.504;2023-03-11T11:43:48;13.77;;;6.35;;
59486;SDS011;45298;54.918;73.504;2023-03-11T11:49:04;13.25;;;5.85;;
59486;SDS011;45298;54.918;73.504;2023-03-11T11:51:57;14.63;;;5.95;;
59486;SDS011;45298;54.918;73.504;2023-03-11T11:55:00;13.82;;;5.72;;
59486;SDS011;45298;54.918;73.504;2023-03-11T11:57:34;20.05;;;7.43;;
59486;SDS011;45298;54.918;73.504;2023-03-11T12:00:09;13.48;;;6.28;;
59486;SDS011;45298;54.918;73.504;2023-03-11T12:05:58;13.18;;;5.32;;
59486;SDS011;45298;54.918;73.504;2023-03-11T12:11:35;13.15;;;5.63;;
59486;SDS011;45298;54.918;73.504;2023-03-11T12:14:17;17.98;;;6.65;;
59486;SDS011;45298;54.918;73.504;2023-03-11T12:16:57;15.73;;;5.75;;
59486;SDS011;45298;54.918;73.504;2023-03-11T12:19:35;12.43;;;5.82;;
59486;SDS011;45298;54.918;73.504;2023-03-11T12:25:26;16.70;;;7.20;;
59486;SDS011;45298;54.918;73.504;2023-03-11T12:30:39;15.98;;;5.40;;
59486;SDS011;45298;54.918;73.504;2023-03-11T12:33:33;13.68;;;5.50;;
59486;SDS011;45298;54.918;73.504;2023-03-11T12:36:03;10.50;;;5.00;;
59486;SDS011;45298;54.918;73.504;2023-03-11T12:38:38;12.45;;;5.35;;
59486;SDS011;45298;54.918;73.504;2023-03-11T12:46:14;15.93;;;5.53;;
59486;SDS011;45298;54.918;73.504;2023-03-11T12:51:39;12.82;;;5.85;;
59486;SDS011;45298;54.918;73.504;2023-03-11T12:57:01;12.88;;;5.65;;
59486;SDS011;45298;54.918;73.504;2023-03-11T13:08:59;15.60;;;6.53;;
59486;SDS011;45298;54.918;73.504;2023-03-11T13:20:37;23.48;;;7.85;;
59486;SDS011;45298;54.918;73.504;2023-03-11T13:36:52;20.75;;;8.88;;
59486;SDS011;45298;54.918;73.504;2023-03-11T13:42:26;21.80;;;8.40;;
59486;SDS011;45298;54.918;73.504;2023-03-11T13:44:58;23.05;;;10.32;;
59486;SDS011;45298;54.918;73.504;2023-03-11T13:47:28;22.88;;;9.52;;
59486;SDS011;45298;54.918;73.504;2023-03-11T13:57:35;24.55;;;10.60;;
59486;SDS011;45298;54.918;73.504;2023-03-11T14:00:14;24.15;;;10.07;;
59486;SDS011;45298;54.918;73.504;2023-03-11T14:02:45;21.10;;;9.50;;
59486;SDS011;45298;54.918;73.504;2023-03-11T14:05:18;18.85;;;8.90;;
59486;SDS011;45298;54.918;73.504;2023-03-11T14:07:54;19.85;;;9.38;;
59486;SDS011;45298;54.918;73.504;2023-03-11T14:10:48;19.10;;;8.07;;
59486;SDS011;45298;54.918;73.504;2023-03-11T14:13:20;20.83;;;8.90;;
59486;SDS011;45298;54.918;73.504;2023-03-11T14:15:51;21.20;;;9.27;;
59486;SDS011;45298;54.918;73.504;2023-03-11T14:18:35;19.10;;;8.40;;
59486;SDS011;45298;54.918;73.504;2023-03-11T14:21:12;23.65;;;9.60;;
59486;SDS011;45298;54.918;73.504;2023-03-11T14:23:45;24.48;;;10.63;;
59486;SDS011;45298;54.918;73.504;2023-03-11T14:26:17;21.25;;;10.20;;
59486;SDS011;45298;54.918;73.504;2023-03-11T14:28:52;23.15;;;10.07;;
59486;SDS011;45298;54.918;73.504;2023-03-11T14:31:24;24.73;;;10.20;;
59486;SDS011;45298;54.918;73.504;2023-03-11T14:34:10;32.08;;;14.15;;
59486;SDS011;45298;54.918;73.504;2023-03-11T14:36:50;37.35;;;14.68;;
59486;SDS011;45298;54.918;73.504;2023-03-11T14:50:42;16.15;;;7.47;;
59486;SDS011;45298;54.918;73.504;2023-03-11T14:53:24;19.48;;;7.25;;
59486;SDS011;45298;54.918;73.504;2023-03-11T14:56:06;18.33;;;8.95;;
59486;SDS011;45298;54.918;73.504;2023-03-11T14:58:42;16.92;;;8.10;;
59486;SDS011;45298;54.918;73.504;2023-03-11T15:01:28;16.48;;;8.80;;
59486;SDS011;45298;54.918;73.504;2023-03-11T15:04:05;16.98;;;7.75;;
59486;SDS011;45298;54.918;73.504;2023-03-11T15:06:41;17.70;;;8.05;;
59486;SDS011;45298;54.918;73.504;2023-03-11T15:09:12;21.05;;;9.30;;
59486;SDS011;45298;54.918;73.504;2023-03-11T15:11:59;18.30;;;8.25;;
59486;SDS011;45298;54.918;73.504;2023-03-11T15:14:30;15.60;;;8.00;;
59486;SDS011;45298;54.918;73.504;2023-03-11T15:17:15;19.15;;;8.55;;
59486;SDS011;45298;54.918;73.504;2023-03-11T15:20:21;16.38;;;8.13;;
59486;SDS011;45298;54.918;73.504;2023-03-11T15:22:56;19.38;;;8.77;;
59486;SDS011;45298;54.918;73.504;2023-03-11T15:25:32;16.30;;;8.38;;
59486;SDS011;45298;54.918;73.504;2023-03-11T15:28:18;23.10;;;9.27;;
59486;SDS011;45298;54.918;73.504;2023-03-11T15:33:49;20.98;;;9.48;;
59486;SDS011;45298;54.918;73.504;2023-03-11T15:36:36;18.40;;;8.10;;
59486;SDS011;45298;54.918;73.504;2023-03-11T15:39:11;18.58;;;9.55;;
59486;SDS011;45298;54.918;73.504;2023-03-11T15:41:44;24.38;;;10.50;;
59486;SDS011;45298;54.918;73.504;2023-03-11T15:44:35;27.40;;;12.90;;
59486;SDS011;45298;54.918;73.504;2023-03-11T15:47:13;23.17;;;9.50;;
59486;SDS011;45298;54.918;73.504;2023-03-11T15:49:43;26.73;;;11.70;;
59486;SDS011;45298;54.918;73.504;2023-03-11T15:52:13;22.67;;;10.70;;
59486;SDS011;45298;54.918;73.504;2023-03-11T15:54:43;25.60;;;11.43;;
59486;SDS011;45298;54.918;73.504;2023-03-11T15:57:25;24.10;;;10.73;;
59486;SDS011;45298;54.918;73.504;2023-03-11T15:59:56;20.02;;;9.15;;
59486;SDS011;45298;54.918;73.504;2023-03-11T16:02:32;26.02;;;10.13;;
59486;SDS011;45298;54.918;73.504;2023-03-11T16:05:01;28.05;;;11.60;;
59486;SDS011;45298;54.918;73.504;2023-03-11T16:07:39;23.23;;;10.63;;
59486;SDS011;45298;54.918;73.504;2023-03-11T16:10:08;24.35;;;11.57;;
59486;SDS011;45298;54.918;73.504;2023-03-11T16:12:38;22.48;;;10.68;;
59486;SDS011;45298;54.918;73.504;2023-03-11T16:15:19;22.73;;;9.93;;
59486;SDS011;45298;54.918;73.504;2023-03-11T16:17:52;20.58;;;9.10;;
59486;SDS011;45298;54.918;73.504;2023-03-11T16:20:30;18.05;;;8.70;;
59486;SDS011;45298;54.918;73.504;2023-03-11T16:23:09;17.70;;;7.88;;
59486;SDS011;45298;54.918;73.504;2023-03-11T16:26:17;17.75;;;8.15;;
59486;SDS011;45298;54.918;73.504;2023-03-11T16:28:46;23.75;;;10.50;;
59486;SDS011;45298;54.918;73.504;2023-03-11T16:31:16;18.70;;;8.35;;
59486;SDS011;45298;54.918;73.504;2023-03-11T16:33:47;20.65;;;9.00;;
59486;SDS011;45298;54.918;73.504;2023-03-11T16:36:16;18.95;;;8.70;;
59486;SDS011;45298;54.918;73.504;2023-03-11T16:38:46;19.13;;;9.02;;
59486;SDS011;45298;54.918;73.504;2023-03-11T16:41:17;20.77;;;9.07;;
59486;SDS011;45298;54.918;73.504;2023-03-11T16:43:46;18.98;;;8.90;;
59486;SDS011;45298;54.918;73.504;2023-03-11T16:46:15;27.13;;;12.30;;
59486;SDS011;45298;54.918;73.504;2023-03-11T16:48:44;21.23;;;9.93;;
59486;SDS011;45298;54.918;73.504;2023-03-11T16:51:13;20.38;;;9.18;;
59486;SDS011;45298;54.918;73.504;2023-03-11T16:53:41;20.88;;;8.30;;
59486;SDS011;45298;54.918;73.504;2023-03-11T16:56:11;17.83;;;8.38;;
59486;SDS011;45298;54.918;73.504;2023-03-11T16:58:40;20.33;;;9.43;;
59486;SDS011;45298;54.918;73.504;2023-03-11T17:01:10;20.90;;;8.88;;
59486;SDS011;45298;54.918;73.504;2023-03-11T17:03:39;18.02;;;7.65;;
59486;SDS011;45298;54.918;73.504;2023-03-11T17:06:10;21.95;;;9.27;;
59486;SDS011;45298;54.918;73.504;2023-03-11T17:08:39;20.95;;;9.52;;
59486;SDS011;45298;54.918;73.504;2023-03-11T17:11:15;21.10;;;9.18;;